Time;durP1;ratioP1;P1;durP2;ratioP2;P2;SDS_P1;SDS_P2;PMS_P1;PMS_P2;Temp;Humidity;BMP_temperature;BMP_pressure;BME280_temperature;BME280_humidity;BME280_pressure;Samples;Min_cycle;Max_cycle;Signal;HPM_P1;HPM_P2
2023/07/11 00:01:45;;;;;;;4.73;4.33;;;24.70;81.50;;;;;;5014651;28;20172;-67
2023/07/11 00:04:11;;;;;;;6.27;4.03;;;24.60;81.90;;;;;;5037637;22;20299;-69
2023/07/11 00:06:36;;;;;;;4.47;3.90;;;24.50;82.40;;;;;;5013807;28;20164;-71
2023/07/11 00:09:02;;;;;;;3.93;3.53;;;24.50;82.40;;;;;;5013621;28;20168;-68
2023/07/11 00:11:28;;;;;;;4.03;3.60;;;24.40;82.40;;;;;;5013305;28;20196;-68
2023/07/11 00:13:55;;;;;;;4.33;3.93;;;24.40;82.70;;;;;;5013655;28;20192;-69
2023/07/11 00:16:21;;;;;;;5.33;4.00;;;24.20;82.40;;;;;;5013441;28;20181;-69
2023/07/11 00:18:47;;;;;;;7.77;4.00;;;24.30;83.00;;;;;;5013533;28;20408;-69
2023/07/11 00:21:13;;;;;;;4.57;3.63;;;24.30;82.70;;;;;;5013582;28;20415;-69
2023/07/11 00:23:41;;;;;;;5.67;4.43;;;24.30;82.10;;;;;;5013703;28;20487;-69
2023/07/11 00:26:06;;;;;;;4.53;4.00;;;24.20;82.30;;;;;;5013576;28;20178;-69
2023/07/11 00:28:32;;;;;;;4.43;4.00;;;24.20;82.60;;;;;;4995937;28;20513;-70
2023/07/11 00:30:58;;;;;;;4.40;3.97;;;24.20;82.90;;;;;;5012879;28;20207;-69
2023/07/11 00:33:23;;;;;;;4.90;3.93;;;24.20;82.70;;;;;;5013857;28;20183;-69
2023/07/11 00:35:51;;;;;;;4.93;4.33;;;24.20;82.50;;;;;;5031082;28;20398;-69
2023/07/11 00:38:17;;;;;;;4.60;4.20;;;24.00;82.60;;;;;;5033112;28;20163;-70
2023/07/11 00:40:49;;;;;;;4.23;3.93;;;24.00;83.00;;;;;;5033601;28;20436;-69
2023/07/11 00:43:17;;;;;;;4.67;3.83;;;24.10;83.00;;;;;;5033401;28;20171;-70
2023/07/11 00:45:49;;;;;;;4.73;4.33;;;24.20;82.60;;;;;;5019192;28;20435;-69
2023/07/11 00:48:17;;;;;;;4.17;3.80;;;24.20;82.90;;;;;;5013462;28;20442;-69
2023/07/11 00:50:44;;;;;;;4.20;3.80;;;23.90;82.90;;;;;;5013340;28;20457;-70
2023/07/11 00:53:11;;;;;;;5.47;4.13;;;23.80;83.40;;;;;;5013865;28;20407;-70
2023/07/11 00:55:36;;;;;;;4.90;3.97;;;23.80;83.80;;;;;;5013255;28;20427;-69
2023/07/11 00:58:02;;;;;;;4.97;4.20;;;23.90;83.80;;;;;;5013071;28;20403;-69
2023/07/11 01:00:27;;;;;;;4.37;3.97;;;24.00;83.80;;;;;;5012334;28;20557;-69
2023/07/11 01:02:53;;;;;;;4.80;3.60;;;24.10;83.60;;;;;;5012866;28;20195;-69
2023/07/11 01:05:19;;;;;;;4.73;3.77;;;24.20;83.30;;;;;;5012649;28;20693;-70
2023/07/11 01:07:44;;;;;;;5.80;4.80;;;24.30;83.00;;;;;;5012798;28;20172;-70
2023/07/11 01:10:10;;;;;;;3.93;3.63;;;24.20;83.10;;;;;;5012909;28;20202;-69
2023/07/11 01:12:36;;;;;;;4.73;4.27;;;24.20;82.90;;;;;;5013073;28;20168;-69
2023/07/11 01:15:03;;;;;;;4.97;4.47;;;24.20;83.30;;;;;;5012423;28;20511;-69
2023/07/11 01:17:35;;;;;;;5.20;3.13;;;24.10;83.10;;;;;;5012366;28;20418;-69
2023/07/11 01:20:07;;;;;;;6.17;4.00;;;24.10;83.10;;;;;;5012674;28;20464;-69
2023/07/11 01:22:35;;;;;;;4.80;3.80;;;24.10;83.20;;;;;;5012909;28;20487;-70
2023/07/11 01:25:11;;;;;;;4.03;3.63;;;24.10;82.90;;;;;;5012532;28;20488;-70
2023/07/11 01:27:39;;;;;;;4.63;4.23;;;24.10;83.00;;;;;;5012784;28;20478;-70
2023/07/11 01:30:07;;;;;;;5.90;3.80;;;24.00;83.40;;;;;;5012826;28;20414;-70
2023/07/11 01:32:33;;;;;;;3.80;3.50;;;24.00;83.60;;;;;;5012288;28;20802;-70
2023/07/11 01:34:59;;;;;;;4.30;3.90;;;23.90;84.10;;;;;;5012067;28;20435;-70
2023/07/11 01:37:24;;;;;;;4.30;3.90;;;23.90;84.20;;;;;;5012342;28;20406;-69
2023/07/11 01:39:50;;;;;;;7.27;4.63;;;23.80;84.20;;;;;;5012429;28;20210;-69
2023/07/11 01:42:16;;;;;;;5.73;4.40;;;23.70;84.70;;;;;;5012710;28;20218;-69
2023/07/11 01:44:41;;;;;;;4.80;3.87;;;23.50;84.80;;;;;;5016243;28;20278;-68
2023/07/11 01:47:08;;;;;;;6.13;4.60;;;23.50;85.00;;;;;;5016273;28;20171;-69
2023/07/11 01:49:34;;;;;;;5.93;4.27;;;23.40;85.60;;;;;;5016539;28;20183;-69
2023/07/11 01:52:13;;;;;;;4.37;4.00;;;23.30;85.60;;;;;;5016298;28;20497;-69
2023/07/11 01:54:39;;;;;;;4.20;3.80;;;23.20;85.80;;;;;;5016176;28;20423;-69
2023/07/11 01:57:07;;;;;;;4.80;4.30;;;23.30;86.00;;;;;;5016011;28;20465;-69
2023/07/11 01:59:33;;;;;;;5.00;3.80;;;23.20;86.90;;;;;;4998792;28;20199;-69
2023/07/11 02:01:59;;;;;;;4.83;4.43;;;23.20;87.10;;;;;;5015888;28;20430;-69
2023/07/11 02:04:25;;;;;;;4.87;4.37;;;23.20;87.60;;;;;;5015847;28;20936;-69
2023/07/11 02:06:51;;;;;;;8.17;4.33;;;23.30;87.30;;;;;;5015715;28;20247;-69
2023/07/11 02:09:18;;;;;;;4.90;3.67;;;23.30;87.80;;;;;;5015612;28;20510;-69
2023/07/11 02:11:44;;;;;;;4.90;4.40;;;23.30;87.50;;;;;;5016050;28;20450;-69
2023/07/11 02:14:12;;;;;;;5.50;4.80;;;23.30;87.30;;;;;;5015810;28;20422;-68
2023/07/11 02:16:38;;;;;;;4.27;3.77;;;23.30;87.90;;;;;;5014789;28;20427;-69
2023/07/11 02:19:03;;;;;;;5.03;4.53;;;23.20;88.50;;;;;;5015945;28;20414;-70
2023/07/11 02:21:29;;;;;;;4.40;4.00;;;23.20;89.40;;;;;;5016423;28;20225;-69
2023/07/11 02:23:54;;;;;;;6.90;4.57;;;23.20;89.80;;;;;;5015810;28;20250;-69
2023/07/11 02:26:20;;;;;;;6.30;4.27;;;23.20;89.80;;;;;;5015908;28;20532;-69
2023/07/11 02:28:45;;;;;;;5.30;4.53;;;23.20;90.00;;;;;;5015892;28;20559;-69
2023/07/11 02:31:11;;;;;;;6.10;5.00;;;23.20;90.20;;;;;;5015247;28;20258;-70
2023/07/11 02:33:38;;;;;;;5.30;4.37;;;23.20;90.40;;;;;;5015641;28;20655;-70
2023/07/11 02:36:04;;;;;;;5.93;4.60;;;23.10;90.70;;;;;;5018196;28;20168;-69
2023/07/11 02:38:29;;;;;;;4.73;4.17;;;23.00;90.90;;;;;;5015746;28;20411;-70
2023/07/11 02:40:55;;;;;;;5.60;4.70;;;23.10;91.10;;;;;;4997701;28;20263;-70
2023/07/11 02:43:20;;;;;;;6.03;4.93;;;23.00;91.20;;;;;;5015288;28;20263;-69
2023/07/11 02:45:46;;;;;;;6.47;4.17;;;23.10;91.50;;;;;;5014151;28;20176;-70
2023/07/11 02:48:12;;;;;;;9.73;4.40;;;23.10;91.50;;;;;;5015009;28;20238;-69
2023/07/11 02:50:37;;;;;;;5.20;4.70;;;23.10;91.70;;;;;;5015268;28;20192;-69
2023/07/11 02:53:03;;;;;;;5.20;4.70;;;23.00;91.90;;;;;;5015153;28;20418;-69
2023/07/11 02:55:28;;;;;;;5.90;4.83;;;22.90;92.40;;;;;;5014710;28;20250;-70
2023/07/11 02:57:54;;;;;;;5.80;4.90;;;22.90;92.70;;;;;;5015463;28;20510;-69
2023/07/11 03:00:20;;;;;;;5.60;4.20;;;22.90;92.90;;;;;;5014940;28;20541;-69
2023/07/11 03:02:45;;;;;;;4.80;4.40;;;22.80;93.30;;;;;;5015557;28;20212;-69
2023/07/11 03:05:11;;;;;;;5.30;4.80;;;22.70;93.60;;;;;;5015160;28;20215;-69
2023/07/11 03:07:36;;;;;;;6.00;4.17;;;22.70;94.10;;;;;;5015248;28;20176;-69
2023/07/11 03:10:02;;;;;;;5.77;4.97;;;22.60;94.70;;;;;;5014826;28;20180;-69
2023/07/11 03:12:28;;;;;;;6.00;4.97;;;22.50;95.10;;;;;;5015002;28;20164;-69
2023/07/11 03:14:53;;;;;;;5.33;4.83;;;22.40;95.70;;;;;;5013661;28;20285;-69
2023/07/11 03:17:19;;;;;;;5.00;4.60;;;22.50;96.00;;;;;;5014494;28;20578;-69
2023/07/11 03:19:44;;;;;;;7.43;5.33;;;22.40;96.30;;;;;;5014515;28;20164;-69
2023/07/11 03:22:10;;;;;;;5.20;4.60;;;22.50;96.60;;;;;;5014622;28;20214;-68
2023/07/11 03:24:36;;;;;;;5.63;4.90;;;22.50;96.80;;;;;;5014888;28;20219;-69
2023/07/11 03:27:01;;;;;;;5.30;4.70;;;22.50;97.10;;;;;;5014495;28;20180;-68
2023/07/11 03:29:27;;;;;;;4.60;4.20;;;22.50;97.40;;;;;;5014269;28;20176;-68
2023/07/11 03:31:52;;;;;;;5.57;4.70;;;22.40;97.50;;;;;;5014144;28;20279;-69
2023/07/11 03:34:18;;;;;;;6.00;5.10;;;22.50;97.80;;;;;;5014461;28;20176;-69
2023/07/11 03:36:43;;;;;;;5.83;5.30;;;22.40;98.00;;;;;;4997024;28;20176;-68
2023/07/11 03:39:09;;;;;;;5.13;4.73;;;22.40;98.20;;;;;;5014445;28;20588;-69
2023/07/11 03:41:35;;;;;;;4.90;4.40;;;22.40;98.40;;;;;;5014776;28;20478;-69
2023/07/11 03:44:01;;;;;;;5.50;5.00;;;22.40;98.40;;;;;;5014110;28;20188;-69
2023/07/11 03:46:26;;;;;;;5.33;4.83;;;22.50;98.50;;;;;;5013726;28;20278;-69
2023/07/11 03:48:54;;;;;;;5.90;5.30;;;22.50;98.30;;;;;;5014154;28;20525;-69
2023/07/11 03:51:20;;;;;;;4.80;4.37;;;22.50;98.60;;;;;;5014037;28;20183;-69
2023/07/11 03:53:46;;;;;;;5.60;5.07;;;22.50;98.80;;;;;;5014280;28;20430;-70
2023/07/11 03:56:12;;;;;;;5.13;4.60;;;22.50;98.90;;;;;;5014085;28;20168;-69
2023/07/11 03:58:38;;;;;;;5.37;4.87;;;22.50;99.10;;;;;;5014003;28;20403;-69
2023/07/11 04:01:03;;;;;;;5.37;4.87;;;22.50;99.10;;;;;;5013988;28;20414;-69
2023/07/11 04:03:29;;;;;;;5.30;4.80;;;22.50;99.30;;;;;;5013750;28;20669;-69
2023/07/11 04:05:56;;;;;;;5.47;4.97;;;22.60;99.40;;;;;;5013334;28;20164;-69
2023/07/11 04:08:21;;;;;;;5.33;4.70;;;22.60;99.60;;;;;;5014114;28;20188;-69
2023/07/11 04:10:47;;;;;;;4.70;4.30;;;22.60;99.50;;;;;;5013963;28;20914;-69
2023/07/11 04:13:12;;;;;;;5.90;5.40;;;22.60;99.80;;;;;;4996050;28;20259;-69
2023/07/11 04:15:38;;;;;;;6.03;4.80;;;22.50;99.90;;;;;;5012154;28;20216;-69
2023/07/11 04:18:04;;;;;;;6.70;5.13;;;22.60;99.90;;;;;;5013755;28;20168;-69
2023/07/11 04:20:29;;;;;;;5.13;4.60;;;22.60;99.90;;;;;;5013470;28;20247;-69
2023/07/11 04:22:55;;;;;;;5.53;5.03;;;22.70;99.90;;;;;;5013704;28;20168;-69
2023/07/11 04:25:20;;;;;;;5.60;4.97;;;22.70;99.90;;;;;;5013277;28;20246;-69
2023/07/11 04:27:46;;;;;;;6.17;5.30;;;22.60;99.90;;;;;;5014071;28;20223;-69
2023/07/11 04:30:12;;;;;;;5.30;4.80;;;22.60;99.90;;;;;;5013267;28;20247;-69
2023/07/11 04:32:37;;;;;;;6.40;5.50;;;22.70;99.90;;;;;;5030887;28;20178;-69
2023/07/11 04:35:04;;;;;;;6.13;5.43;;;22.70;99.90;;;;;;5032968;28;21009;-69
2023/07/11 04:37:30;;;;;;;5.87;4.77;;;22.70;99.90;;;;;;5033031;28;20658;-69
2023/07/11 04:39:55;;;;;;;5.97;5.43;;;22.80;99.90;;;;;;5033300;28;20413;-70
2023/07/11 04:42:21;;;;;;;8.40;5.27;;;22.90;99.90;;;;;;5031111;28;20268;-69
2023/07/11 04:44:46;;;;;;;5.10;4.60;;;23.00;99.90;;;;;;5013011;28;20192;-69
2023/07/11 04:47:12;;;;;;;6.00;5.43;;;23.10;99.90;;;;;;5012748;28;20176;-69
2023/07/11 04:49:38;;;;;;;6.13;5.63;;;23.20;99.90;;;;;;5013188;28;20222;-69
2023/07/11 04:52:04;;;;;;;5.03;4.63;;;23.20;99.90;;;;;;5012869;28;20184;-69
2023/07/11 04:54:29;;;;;;;5.63;5.13;;;23.30;99.90;;;;;;5012797;28;20434;-69
2023/07/11 04:56:57;;;;;;;6.03;5.43;;;23.40;99.90;;;;;;5012816;28;20196;-69
2023/07/11 04:59:22;;;;;;;5.53;4.97;;;23.40;99.90;;;;;;5013348;28;20176;-70
2023/07/11 05:01:48;;;;;;;4.83;4.40;;;23.40;99.90;;;;;;5012516;28;20481;-69
2023/07/11 05:04:14;;;;;;;5.10;4.60;;;23.50;99.90;;;;;;5012786;28;20283;-70
2023/07/11 05:06:40;;;;;;;7.10;5.30;;;23.60;99.90;;;;;;5012962;28;20718;-69
2023/07/11 05:09:06;;;;;;;5.90;5.40;;;23.60;99.90;;;;;;5013007;28;20230;-69
2023/07/11 05:11:32;;;;;;;5.93;5.33;;;23.70;99.90;;;;;;5012857;28;20446;-69
2023/07/11 05:13:58;;;;;;;6.37;4.80;;;23.70;99.90;;;;;;5012862;28;20438;-70
2023/07/11 05:16:25;;;;;;;6.63;5.87;;;23.80;99.90;;;;;;5012273;28;20259;-68
2023/07/11 05:18:50;;;;;;;6.63;5.93;;;23.90;99.90;;;;;;5012079;28;20164;-68
2023/07/11 05:21:18;;;;;;;6.37;5.60;;;24.00;99.90;;;;;;5012544;28;20402;-68
2023/07/11 05:23:44;;;;;;;7.10;6.23;;;24.10;99.90;;;;;;5012739;28;20188;-68
2023/07/11 05:26:10;;;;;;;7.47;6.77;;;24.10;99.90;;;;;;4994853;28;20422;-68
2023/07/11 05:28:36;;;;;;;6.43;5.87;;;24.20;99.90;;;;;;5012770;28;20497;-70
2023/07/11 05:31:04;;;;;;;8.47;6.57;;;24.30;99.90;;;;;;5012043;28;20450;-69
2023/07/11 05:33:30;;;;;;;13.80;7.20;;;24.50;99.90;;;;;;5012508;28;20182;-69
2023/07/11 05:36:21;;;;;;;7.07;6.47;;;24.60;99.10;;;;;;5013517;28;20411;-69
2023/07/11 05:38:47;;;;;;;7.40;6.70;;;24.70;98.80;;;;;;5013416;28;20394;-68
2023/07/11 05:41:13;;;;;;;8.00;6.70;;;24.70;99.00;;;;;;5012856;28;20411;-68
2023/07/11 05:43:39;;;;;;;7.43;6.57;;;24.80;99.40;;;;;;5013115;28;20457;-69
2023/07/11 05:46:04;;;;;;;6.73;6.03;;;24.80;99.40;;;;;;5012251;28;20415;-68
2023/07/11 05:48:30;;;;;;;7.40;6.47;;;24.90;99.50;;;;;;5012490;28;20642;-68
2023/07/11 05:51:06;;;;;;;7.37;6.60;;;25.00;99.20;;;;;;5014076;28;20674;-69
2023/07/11 05:53:31;;;;;;;7.73;6.90;;;25.20;98.50;;;;;;5012544;28;20178;-69
2023/07/11 05:55:57;;;;;;;8.13;7.33;;;25.30;98.60;;;;;;5012634;28;20905;-69
2023/07/11 05:58:24;;;;;;;8.57;7.77;;;25.50;98.10;;;;;;5013220;28;20172;-68
2023/07/11 06:00:52;;;;;;;9.57;7.70;;;25.50;97.40;;;;;;5011999;28;20517;-68
2023/07/11 06:03:18;;;;;;;8.03;7.23;;;25.70;97.60;;;;;;5012805;28;20443;-69
2023/07/11 06:05:44;;;;;;;9.43;7.50;;;25.90;97.50;;;;;;5027257;22;20490;-69
2023/07/11 06:08:12;;;;;;;8.10;6.43;;;26.00;97.20;;;;;;5013371;28;20406;-68
2023/07/11 06:10:38;;;;;;;7.30;6.70;;;26.10;97.00;;;;;;5012847;28;20249;-70
2023/07/11 06:13:04;;;;;;;8.23;7.17;;;26.20;97.10;;;;;;5012768;28;20904;-69
2023/07/11 06:15:30;;;;;;;7.20;6.50;;;26.30;96.90;;;;;;5002301;28;20530;-68
2023/07/11 06:17:55;;;;;;;9.20;7.40;;;26.30;96.30;;;;;;4993410;28;20462;-69
2023/07/11 06:20:21;;;;;;;9.93;7.70;;;26.30;95.90;;;;;;4993473;28;20241;-69
2023/07/11 06:22:46;;;;;;;9.20;7.57;;;26.30;96.40;;;;;;4993382;28;20169;-69
2023/07/11 06:25:12;;;;;;;7.40;6.40;;;26.50;96.20;;;;;;4993563;28;20189;-69
2023/07/11 06:27:37;;;;;;;8.27;6.80;;;26.60;96.00;;;;;;4993386;28;20169;-68
2023/07/11 06:30:03;;;;;;;8.60;7.70;;;26.70;95.50;;;;;;4996124;28;20289;-69
2023/07/11 06:32:29;;;;;;;8.90;6.70;;;26.70;94.80;;;;;;4996861;28;20200;-69
2023/07/11 06:34:55;;;;;;;7.33;6.50;;;26.80;95.00;;;;;;5001697;28;20437;-68
2023/07/11 06:37:20;;;;;;;8.30;6.50;;;26.80;95.50;;;;;;4998882;28;20174;-67
2023/07/11 06:39:46;;;;;;;6.27;5.73;;;27.00;95.40;;;;;;5016188;28;20251;-69
2023/07/11 06:42:12;;;;;;;11.93;7.03;;;27.10;94.80;;;;;;5003682;28;20178;-69
2023/07/11 06:44:37;;;;;;;7.20;6.03;;;27.20;93.60;;;;;;4996960;28;20481;-68
2023/07/11 06:47:03;;;;;;;7.93;6.77;;;27.30;93.90;;;;;;4977576;28;20177;-69
2023/07/11 06:49:29;;;;;;;8.53;6.30;;;27.20;93.30;;;;;;4977050;28;20640;-68
2023/07/11 06:51:54;;;;;;;7.67;6.57;;;27.30;93.60;;;;;;4977057;28;20197;-68
2023/07/11 06:54:20;;;;;;;8.83;6.30;;;27.30;92.60;;;;;;4977099;28;20555;-68
2023/07/11 06:56:45;;;;;;;7.93;7.13;;;26.90;93.40;;;;;;4976968;28;20212;-68
2023/07/11 06:59:19;;;;;;;8.30;6.63;;;26.80;93.50;;;;;;4976968;28;20198;-68
2023/07/11 07:01:45;;;;;;;7.73;6.97;;;27.10;93.50;;;;;;4976556;28;20635;-68
2023/07/11 07:04:13;;;;;;;7.60;6.70;;;27.30;93.30;;;;;;4976964;28;20492;-68
2023/07/11 07:06:42;;;;;;;7.80;6.40;;;27.40;92.70;;;;;;4976964;28;20405;-67
2023/07/11 07:09:08;;;;;;;7.30;6.20;;;27.50;92.90;;;;;;4976923;28;20997;-68
2023/07/11 07:11:35;;;;;;;5.83;5.17;;;27.60;91.70;;;;;;4976903;28;20543;-68
2023/07/11 07:14:02;;;;;;;6.87;6.27;;;27.50;91.10;;;;;;4976899;28;20781;-68
2023/07/11 07:16:30;;;;;;;7.47;5.63;;;27.70;90.80;;;;;;4990291;28;20486;-68
2023/07/11 07:18:56;;;;;;;8.93;5.67;;;27.80;90.70;;;;;;4996222;28;20399;-67
2023/07/11 07:21:22;;;;;;;9.03;5.73;;;28.10;90.90;;;;;;4996224;28;20778;-68
2023/07/11 07:23:47;;;;;;;7.43;6.40;;;28.00;91.80;;;;;;4995826;28;20169;-68
2023/07/11 07:26:13;;;;;;;7.50;6.20;;;27.70;92.30;;;;;;4996109;28;20232;-68
2023/07/11 07:28:38;;;;;;;7.80;6.00;;;27.60;92.60;;;;;;4995977;28;20212;-67
2023/07/11 07:31:05;;;;;;;7.10;5.60;;;27.70;92.40;;;;;;4995277;28;20271;-68
2023/07/11 07:33:31;;;;;;;6.33;5.73;;;27.90;91.90;;;;;;4978317;28;20168;-70
2023/07/11 07:35:59;;;;;;;6.70;6.00;;;28.10;91.60;;;;;;4995718;28;20416;-69
2023/07/11 07:38:27;;;;;;;6.37;5.77;;;28.30;90.90;;;;;;4995927;28;20244;-71
2023/07/11 07:40:54;;;;;;;7.43;5.10;;;28.20;90.30;;;;;;4994871;28;20784;-69
2023/07/11 07:43:20;;;;;;;6.63;6.03;;;28.20;90.30;;;;;;4995533;28;20408;-70
2023/07/11 07:45:54;;;;;;;6.57;5.70;;;28.20;90.20;;;;;;4994878;28;20439;-68
2023/07/11 07:48:20;;;;;;;6.80;5.87;;;28.30;89.70;;;;;;4995661;28;20388;-68
2023/07/11 07:50:47;;;;;;;6.30;5.63;;;28.30;89.60;;;;;;4995592;28;20458;-68
2023/07/11 07:53:13;;;;;;;5.40;4.90;;;28.30;90.00;;;;;;4995556;28;20418;-68
2023/07/11 07:55:40;;;;;;;6.43;5.80;;;28.50;89.70;;;;;;4995560;28;20431;-69
2023/07/11 07:58:06;;;;;;;6.90;6.10;;;28.60;89.60;;;;;;4995433;28;20939;-68
2023/07/11 08:00:32;;;;;;;7.17;5.40;;;28.60;89.30;;;;;;4995197;28;20430;-68
2023/07/11 08:02:58;;;;;;;7.40;6.20;;;28.70;89.60;;;;;;4995519;28;20411;-69
2023/07/11 08:05:25;;;;;;;6.93;5.70;;;29.00;90.00;;;;;;4994902;28;20447;-69
2023/07/11 08:07:51;;;;;;;7.17;5.90;;;29.10;89.30;;;;;;4997662;28;20415;-70
2023/07/11 08:10:17;;;;;;;7.20;5.00;;;29.10;88.50;;;;;;4995920;28;20404;-69
2023/07/11 08:12:43;;;;;;;6.93;6.30;;;29.10;88.50;;;;;;4994914;28;20495;-69
2023/07/11 08:15:11;;;;;;;7.10;5.90;;;29.20;88.00;;;;;;4994404;28;20958;-67
2023/07/11 08:17:38;;;;;;;8.20;5.63;;;29.20;89.70;;;;;;4994859;28;20449;-70
2023/07/11 08:20:04;;;;;;;6.77;6.10;;;29.30;88.30;;;;;;4994920;28;20914;-68
2023/07/11 08:22:30;;;;;;;6.07;5.47;;;29.50;87.70;;;;;;4994781;28;20760;-69
2023/07/11 08:24:55;;;;;;;7.90;6.80;;;29.50;87.40;;;;;;4994758;28;20427;-68
2023/07/11 08:27:22;;;;;;;8.17;6.03;;;29.40;88.10;;;;;;4995383;28;20173;-68
2023/07/11 08:29:48;;;;;;;6.77;5.83;;;29.20;87.70;;;;;;4994749;28;20255;-67
2023/07/11 08:32:14;;;;;;;6.63;6.03;;;29.00;88.20;;;;;;4994501;28;20439;-68
2023/07/11 08:34:40;;;;;;;11.30;6.23;;;29.10;88.80;;;;;;4994723;28;20196;-68
2023/07/11 08:37:05;;;;;;;7.30;5.70;;;29.30;88.60;;;;;;4994911;28;20443;-69
2023/07/11 08:39:31;;;;;;;6.63;5.93;;;29.60;87.60;;;;;;5005492;28;20447;-69
2023/07/11 08:42:01;;;;;;;16.33;7.23;;;29.90;86.30;;;;;;4994315;28;20176;-68
2023/07/11 08:44:53;;;;;;;7.90;6.87;;;30.00;85.90;;;;;;4977994;28;20215;-70
2023/07/11 08:47:25;;;;;;;7.00;5.90;;;30.30;85.20;;;;;;4967382;28;20788;-70
2023/07/11 08:49:57;;;;;;;9.53;6.43;;;30.30;85.70;;;;;;4975233;28;20397;-69
2023/07/11 08:52:25;;;;;;;5.70;5.20;;;30.60;84.90;;;;;;4974942;28;20457;-68
2023/07/11 08:55:04;;;;;;;7.50;6.23;;;30.80;84.80;;;;;;4975297;28;20849;-69
2023/07/11 08:57:37;;;;;;;6.40;5.90;;;30.90;85.00;;;;;;4975344;28;20424;-68
2023/07/11 09:00:18;;;;;;;6.77;5.93;;;30.90;84.40;;;;;;4974931;28;20392;-69
2023/07/11 09:03:16;;;;;;;6.60;5.97;;;30.70;85.10;;;;;;4974660;28;20483;-69
2023/07/11 09:06:12;;;;;;;5.83;5.33;;;30.80;87.40;;;;;;4974603;28;20926;-70
2023/07/11 09:08:42;;;;;;;7.17;6.47;;;31.00;85.30;;;;;;4959327;28;20425;-69
2023/07/11 09:11:51;;;;;;;13.03;7.43;;;31.10;84.50;;;;;;4974767;28;20448;-70
2023/07/11 09:14:54;;;;;;;8.00;6.90;;;31.10;84.60;;;;;;4944908;28;20445;-69
2023/07/11 09:17:35;;;;;;;9.03;6.50;;;31.10;84.90;;;;;;4974374;28;20487;-70
2023/07/11 09:20:19;;;;;;;7.27;6.33;;;31.10;85.20;;;;;;4974798;28;20413;-70
2023/07/11 09:22:45;;;;;;;7.60;6.87;;;31.20;84.10;;;;;;4974745;28;20417;-70
2023/07/11 09:25:16;;;;;;;6.97;6.33;;;31.30;84.30;;;;;;4974807;28;20814;-69
2023/07/11 09:27:45;;;;;;;8.70;7.37;;;31.20;84.90;;;;;;4974696;28;20154;-68
2023/07/11 09:30:28;;;;;;;7.73;6.93;;;31.20;84.50;;;;;;4974760;28;20888;-69
2023/07/11 09:33:17;;;;;;;6.77;6.27;;;31.50;83.20;;;;;;4974403;28;20401;-71
2023/07/11 09:35:44;;;;;;;6.40;5.80;;;31.50;84.00;;;;;;4974249;28;20445;-69
2023/07/11 09:38:30;;;;;;;7.57;6.80;;;31.80;82.20;;;;;;4974587;28;20496;-69
2023/07/11 09:41:17;;;;;;;7.77;6.90;;;31.90;82.30;;;;;;4974482;28;20440;-68
2023/07/11 09:43:43;;;;;;;9.20;6.10;;;32.10;81.90;;;;;;4974324;28;20384;-68
2023/07/11 09:46:13;;;;;;;7.53;6.63;;;32.40;81.70;;;;;;4985672;28;20447;-69
2023/07/11 09:48:40;;;;;;;6.60;6.00;;;32.50;80.50;;;;;;4993594;28;20176;-69
2023/07/11 09:51:24;;;;;;;9.00;6.07;;;32.30;79.90;;;;;;4993913;28;20444;-69
2023/07/11 09:53:54;;;;;;;7.20;5.80;;;32.40;79.80;;;;;;4993873;28;20396;-70
2023/07/11 09:56:21;;;;;;;7.37;6.67;;;32.50;78.80;;;;;;4993774;28;20407;-71
2023/07/11 09:58:50;;;;;;;7.00;6.30;;;32.40;78.50;;;;;;4993695;28;20403;-73
2023/07/11 10:01:21;;;;;;;7.77;6.97;;;32.50;79.40;;;;;;4993119;28;20416;-69
2023/07/11 10:03:47;;;;;;;8.10;7.07;;;32.80;79.10;;;;;;4994723;28;20456;-69
2023/07/11 10:06:35;;;;;;;6.20;5.60;;;33.10;77.30;;;;;;4980330;28;20489;-70
2023/07/11 10:09:37;;;;;;;7.23;6.53;;;33.10;77.00;;;;;;5016767;28;20406;-71
2023/07/11 10:12:21;;;;;;;7.10;6.40;;;32.90;76.80;;;;;;5005292;28;20548;-72
2023/07/11 10:14:51;;;;;;;8.00;7.20;;;33.10;77.60;;;;;;5015420;28;20465;-72
2023/07/11 10:17:26;;;;;;;6.17;5.57;;;33.50;75.60;;;;;;4997089;28;20438;-71
2023/07/11 10:19:58;;;;;;;7.27;6.60;;;33.50;74.50;;;;;;4997419;28;20800;-70
2023/07/11 10:22:27;;;;;;;7.20;6.50;;;33.60;75.60;;;;;;4997394;28;20404;-70
2023/07/11 10:25:09;;;;;;;6.87;6.17;;;33.90;74.50;;;;;;4997785;28;20423;-70
2023/07/11 10:27:37;;;;;;;8.47;7.63;;;33.70;74.10;;;;;;4997202;28;20438;-70
2023/07/11 10:30:04;;;;;;;7.17;6.50;;;33.70;73.80;;;;;;4996912;28;20498;-69
2023/07/11 10:32:40;;;;;;;8.53;6.60;;;34.00;73.60;;;;;;4996728;28;20452;-69
2023/07/11 10:35:12;;;;;;;7.07;6.40;;;34.50;72.20;;;;;;4996598;28;20424;-69
2023/07/11 10:38:00;;;;;;;7.40;6.70;;;34.40;70.30;;;;;;5011954;28;20399;-67
2023/07/11 10:40:32;;;;;;;7.67;5.97;;;34.00;71.60;;;;;;5016422;28;20387;-70
2023/07/11 10:43:25;;;;;;;13.57;6.87;;;33.60;71.80;;;;;;5016631;28;20482;-69
2023/07/11 10:45:57;;;;;;;7.53;6.83;;;33.70;72.20;;;;;;5006982;28;20430;-68
2023/07/11 10:48:32;;;;;;;9.37;6.60;;;33.80;71.40;;;;;;4996784;28;20871;-69
2023/07/11 10:51:06;;;;;;;7.93;6.80;;;34.00;72.60;;;;;;4996799;28;20447;-69
2023/07/11 10:53:45;;;;;;;8.20;7.40;;;34.00;72.10;;;;;;4996733;28;20394;-69
2023/07/11 10:56:45;;;;;;;6.73;6.13;;;33.80;71.40;;;;;;4979112;28;20412;-68
2023/07/11 10:59:16;;;;;;;7.47;6.77;;;34.10;71.40;;;;;;4954365;28;20519;-68
2023/07/11 11:02:20;;;;;;;8.00;7.30;;;34.00;71.30;;;;;;4995900;28;20404;-67
2023/07/11 11:04:56;;;;;;;7.10;6.10;;;34.10;71.60;;;;;;4996074;28;20454;-67
2023/07/11 11:07:33;;;;;;;7.73;6.60;;;34.30;70.80;;;;;;4996955;28;20396;-69
2023/07/11 11:10:06;;;;;;;7.70;7.00;;;34.20;71.70;;;;;;4996581;28;20414;-69
2023/07/11 11:12:41;;;;;;;7.80;6.80;;;34.50;72.80;;;;;;4996128;28;20444;-69
2023/07/11 11:15:13;;;;;;;7.40;6.70;;;34.70;70.40;;;;;;4993798;28;20505;-68
2023/07/11 11:17:57;;;;;;;6.83;6.07;;;35.10;69.90;;;;;;4996356;28;20408;-68
2023/07/11 11:21:03;;;;;;;6.80;6.10;;;35.20;69.10;;;;;;4996647;28;20751;-69
2023/07/11 11:23:44;;;;;;;7.93;7.20;;;35.60;68.60;;;;;;4996316;28;20397;-70
2023/07/11 11:26:37;;;;;;;10.87;7.13;;;35.40;68.30;;;;;;4996258;28;20392;-70
2023/07/11 11:29:21;;;;;;;7.50;6.80;;;35.20;68.80;;;;;;4995733;28;20393;-69
2023/07/11 11:32:24;;;;;;;6.53;5.93;;;34.90;68.80;;;;;;4995275;28;20517;-71
2023/07/11 11:35:10;;;;;;;7.57;6.90;;;35.90;69.30;;;;;;4996082;28;20442;-72
2023/07/11 11:37:42;;;;;;;7.03;6.33;;;37.30;64.90;;;;;;4995900;28;20392;-69
2023/07/11 11:40:29;;;;;;;9.10;7.83;;;38.10;62.10;;;;;;4995979;28;20419;-72
2023/07/11 11:43:00;;;;;;;7.43;6.73;;;39.10;59.40;;;;;;4995528;28;20434;-72
2023/07/11 11:45:26;;;;;;;7.40;6.70;;;39.60;57.60;;;;;;4995396;28;20436;-71
2023/07/11 11:47:54;;;;;;;8.77;7.53;;;40.10;57.10;;;;;;4995473;28;20454;-71
2023/07/11 11:50:23;;;;;;;8.27;6.83;;;39.60;56.60;;;;;;4995830;28;20416;-71
2023/07/11 11:53:27;;;;;;;7.27;6.40;;;38.60;57.80;;;;;;4995289;28;20466;-70
2023/07/11 11:56:05;;;;;;;6.53;5.83;;;39.70;56.90;;;;;;4995433;28;20423;-71
2023/07/11 11:58:34;;;;;;;6.90;6.20;;;41.90;52.90;;;;;;4978209;28;20786;-67
2023/07/11 12:01:00;;;;;;;7.23;5.60;;;41.40;51.80;;;;;;4997410;28;20927;-68
2023/07/11 12:03:44;;;;;;;8.53;6.00;;;42.40;49.80;;;;;;4995446;28;20408;-68
2023/07/11 12:06:28;;;;;;;6.67;6.03;;;41.20;50.10;;;;;;4995716;28;20188;-70
2023/07/11 12:09:16;;;;;;;8.50;5.90;;;40.00;51.30;;;;;;4995071;28;20445;-69
2023/07/11 12:12:14;;;;;;;6.57;5.87;;;39.10;53.50;;;;;;4994829;28;20455;-69
2023/07/11 12:14:56;;;;;;;10.23;7.00;;;38.20;55.30;;;;;;4995038;28;20455;-69
2023/07/11 12:17:34;;;;;;;6.87;6.17;;;37.90;55.40;;;;;;4975361;28;20472;-70
2023/07/11 12:19:59;;;;;;;6.63;6.03;;;38.30;55.90;;;;;;4975357;28;20584;-69
2023/07/11 12:22:26;;;;;;;7.37;6.00;;;38.80;55.60;;;;;;4976108;28;20986;-69
2023/07/11 12:25:17;;;;;;;11.03;5.93;;;39.90;53.00;;;;;;4975197;28;20219;-72
2023/07/11 12:28:01;;;;;;;6.63;5.93;;;40.80;51.50;;;;;;4965259;28;20424;-72
2023/07/11 12:30:26;;;;;;;6.60;5.97;;;40.70;51.70;;;;;;5006286;28;20486;-71
2023/07/11 12:32:56;;;;;;;6.30;5.80;;;41.10;50.60;;;;;;5013991;28;20457;-70
2023/07/11 12:35:42;;;;;;;6.30;5.80;;;42.20;49.40;;;;;;5013943;28;20662;-70
2023/07/11 12:38:21;;;;;;;8.90;5.53;;;41.70;49.70;;;;;;5014082;28;20409;-70
2023/07/11 12:41:15;;;;;;;7.13;6.27;;;41.40;49.90;;;;;;5014370;28;20912;-69
2023/07/11 12:43:46;;;;;;;8.70;7.20;;;41.20;50.40;;;;;;4992165;28;20513;-68
2023/07/11 12:46:27;;;;;;;6.40;5.50;;;41.70;49.20;;;;;;5003351;28;20447;-70
2023/07/11 12:48:54;;;;;;;8.97;6.33;;;41.40;48.80;;;;;;4994461;28;20380;-68
2023/07/11 12:51:36;;;;;;;5.77;5.17;;;41.60;48.60;;;;;;4994368;28;20450;-69
2023/07/11 12:54:11;;;;;;;6.70;6.10;;;41.30;48.90;;;;;;4994228;28;20427;-70
2023/07/11 12:56:43;;;;;;;6.40;5.90;;;41.00;50.00;;;;;;4994182;28;20387;-66
2023/07/11 12:59:39;;;;;;;6.50;5.90;;;41.80;46.90;;;;;;4994399;28;20392;-69
2023/07/11 13:02:06;;;;;;;9.50;7.00;;;42.10;46.80;;;;;;4977743;28;20419;-71